createdAt,value
2024-05-09T00:00:36.070Z,100.00
2024-05-09T00:03:27.984Z,100.00
2024-05-09T00:05:55.792Z,100.00
2024-05-09T00:08:24.991Z,100.00
2024-05-09T00:10:57.607Z,100.00
2024-05-09T00:13:27.397Z,100.00
2024-05-09T00:15:57.594Z,100.00
2024-05-09T00:18:26.294Z,100.00
2024-05-09T00:20:56.874Z,100.00
2024-05-09T00:23:34.173Z,100.00
2024-05-09T00:26:02.185Z,100.00
2024-05-09T00:28:35.290Z,100.00
2024-05-09T00:31:03.382Z,100.00
2024-05-09T00:33:32.128Z,100.00
2024-05-09T00:36:05.639Z,100.00
2024-05-09T00:38:36.188Z,100.00
2024-05-09T00:41:05.617Z,100.00
2024-05-09T00:43:34.498Z,100.00
2024-05-09T00:46:05.328Z,100.00
2024-05-09T00:48:33.579Z,100.00
2024-05-09T00:51:02.834Z,100.00
2024-05-09T00:53:31.095Z,100.00
2024-05-09T00:55:59.856Z,100.00
2024-05-09T00:58:29.262Z,100.00
2024-05-09T01:01:02.010Z,100.00
2024-05-09T01:03:30.134Z,100.00
2024-05-09T01:06:06.227Z,100.00
2024-05-09T01:08:35.378Z,100.00
2024-05-09T01:11:06.464Z,100.00
2024-05-09T01:13:36.912Z,100.00
2024-05-09T01:16:06.793Z,100.00
2024-05-09T01:18:35.698Z,100.00
2024-05-09T01:21:06.335Z,100.00
2024-05-09T01:23:36.003Z,100.00
2024-05-09T01:26:04.115Z,100.00
2024-05-09T01:28:35.419Z,100.00
2024-05-09T01:31:04.313Z,100.00
2024-05-09T01:33:33.710Z,100.00
2024-05-09T01:36:02.909Z,100.00
2024-05-09T01:38:30.881Z,100.00
2024-05-09T01:41:02.085Z,100.00
2024-05-09T01:43:33.100Z,100.00
2024-05-09T01:46:08.741Z,100.00
2024-05-09T01:48:37.237Z,100.00
2024-05-09T01:51:07.901Z,100.00
2024-05-09T01:53:44.919Z,100.00
2024-05-09T01:56:34.369Z,100.00
2024-05-09T01:59:05.114Z,100.00
2024-05-09T02:01:55.625Z,100.00
2024-05-09T02:04:27.422Z,100.00
2024-05-09T02:06:59.182Z,100.00
2024-05-09T02:09:28.807Z,100.00
2024-05-09T02:12:06.762Z,100.00
2024-05-09T02:14:37.509Z,100.00
2024-05-09T02:17:06.694Z,100.00
2024-05-09T02:19:36.387Z,100.00
2024-05-09T02:22:10.413Z,100.00
2024-05-09T02:24:58.405Z,100.00
2024-05-09T02:27:26.943Z,100.00
2024-05-09T02:30:04.703Z,100.00
2024-05-09T02:32:35.336Z,100.00
2024-05-09T02:35:04.762Z,100.00
2024-05-09T02:37:34.836Z,100.00
2024-05-09T02:40:05.631Z,100.00
2024-05-09T02:42:34.117Z,100.00
2024-05-09T02:45:03.957Z,100.00
2024-05-09T02:47:51.686Z,100.00
2024-05-09T02:50:29.595Z,100.00
2024-05-09T02:53:05.953Z,100.00
2024-05-09T02:55:34.867Z,100.00
2024-05-09T02:58:02.911Z,100.00
2024-05-09T03:00:38.255Z,100.00
2024-05-09T03:03:12.795Z,100.00
2024-05-09T03:05:48.437Z,100.00
2024-05-09T03:08:21.408Z,100.00
2024-05-09T03:10:50.475Z,100.00
2024-05-09T03:13:19.633Z,100.00
2024-05-09T03:15:50.760Z,100.00
2024-05-09T03:18:21.448Z,100.00
2024-05-09T03:20:51.861Z,100.00
2024-05-09T03:23:19.988Z,100.00
2024-05-09T03:25:48.777Z,100.00
2024-05-09T03:28:25.562Z,100.00
2024-05-09T03:30:53.855Z,100.00
2024-05-09T03:33:37.528Z,100.00
2024-05-09T03:36:10.952Z,100.00
2024-05-09T03:38:39.482Z,100.00
2024-05-09T03:41:07.598Z,100.00
2024-05-09T03:43:36.984Z,100.00
2024-05-09T03:46:10.427Z,100.00
2024-05-09T03:48:38.523Z,100.00
2024-05-09T03:51:11.185Z,100.00
2024-05-09T03:53:39.484Z,100.00
2024-05-09T03:56:09.043Z,100.00
2024-05-09T03:58:37.217Z,100.00
2024-05-09T04:01:24.970Z,100.00
2024-05-09T04:03:53.065Z,100.00
2024-05-09T04:06:22.174Z,100.00
2024-05-09T04:08:54.127Z,100.00
2024-05-09T04:11:23.974Z,100.00
2024-05-09T04:13:53.661Z,100.00
2024-05-09T04:16:22.478Z,100.00
2024-05-09T04:18:52.981Z,100.00
2024-05-09T04:21:40.733Z,100.00
2024-05-09T04:24:12.381Z,100.00
2024-05-09T04:26:42.428Z,100.00
2024-05-09T04:29:12.720Z,100.00
2024-05-09T04:31:40.873Z,100.00
2024-05-09T04:34:08.847Z,100.00
2024-05-09T04:36:36.643Z,100.00
2024-05-09T04:39:06.492Z,100.00
2024-05-09T04:41:35.875Z,100.00
2024-05-09T04:44:08.531Z,100.00
2024-05-09T04:46:41.320Z,100.00
2024-05-09T04:49:14.201Z,100.00
2024-05-09T04:51:41.993Z,100.00
2024-05-09T04:54:13.015Z,100.00
2024-05-09T04:56:47.515Z,100.00
2024-05-09T04:59:16.494Z,100.00
2024-05-09T05:01:47.246Z,100.00
2024-05-09T05:04:15.810Z,100.00
2024-05-09T05:06:43.969Z,100.00
2024-05-09T05:09:13.222Z,100.00
2024-05-09T05:11:41.799Z,100.00
2024-05-09T05:14:11.916Z,100.00
2024-05-09T05:16:42.170Z,100.00
2024-05-09T05:19:14.293Z,100.00
2024-05-09T05:21:44.952Z,100.00
2024-05-09T05:24:13.567Z,100.00
2024-05-09T05:26:42.031Z,100.00
2024-05-09T05:29:12.314Z,100.00
2024-05-09T05:31:40.800Z,100.00
2024-05-09T05:34:11.063Z,100.00
2024-05-09T05:36:55.521Z,100.00
2024-05-09T05:39:29.694Z,100.00
2024-05-09T05:41:59.279Z,100.00
2024-05-09T05:44:27.316Z,100.00
2024-05-09T05:46:56.124Z,100.00
2024-05-09T05:49:27.220Z,100.00
2024-05-09T05:51:55.779Z,100.00
2024-05-09T05:54:25.591Z,100.00
2024-05-09T05:56:54.713Z,100.00
2024-05-09T05:59:24.180Z,100.00
2024-05-09T06:01:52.354Z,100.00
2024-05-09T06:04:25.182Z,100.00
2024-05-09T06:06:57.266Z,100.00
2024-05-09T06:09:25.606Z,100.00
2024-05-09T06:11:55.619Z,100.00
2024-05-09T06:14:24.504Z,100.00
2024-05-09T06:16:57.690Z,100.00
2024-05-09T06:19:27.283Z,100.00
2024-05-09T06:21:56.477Z,100.00
2024-05-09T06:24:31.568Z,100.00
2024-05-09T06:27:01.135Z,100.00
2024-05-09T06:29:28.993Z,100.00
2024-05-09T06:32:00.021Z,100.00
2024-05-09T06:34:28.309Z,100.00
2024-05-09T06:36:58.754Z,100.00
2024-05-09T06:39:27.966Z,100.00
2024-05-09T06:41:57.061Z,100.00
2024-05-09T06:44:26.691Z,100.00
2024-05-09T06:46:59.632Z,100.00
2024-05-09T06:49:28.771Z,100.00
2024-05-09T06:51:58.263Z,100.00
2024-05-09T06:54:26.325Z,100.00
2024-05-09T06:56:55.386Z,100.00
2024-05-09T06:59:23.731Z,100.00
2024-05-09T07:02:12.293Z,100.00
2024-05-09T07:04:40.578Z,100.00
2024-05-09T07:07:12.510Z,100.00
2024-05-09T07:09:48.223Z,100.00
2024-05-09T07:12:25.674Z,100.00
2024-05-09T07:14:55.268Z,100.00
2024-05-09T07:17:24.248Z,100.00
2024-05-09T07:19:54.071Z,100.00
2024-05-09T07:22:30.952Z,100.00
2024-05-09T07:25:18.781Z,100.00
2024-05-09T07:27:47.664Z,100.00
2024-05-09T07:30:23.428Z,100.00
2024-05-09T07:32:56.271Z,100.00
2024-05-09T07:35:28.197Z,100.00
2024-05-09T07:37:57.840Z,100.00
2024-05-09T07:40:36.562Z,100.00
2024-05-09T07:43:07.655Z,100.00
2024-05-09T07:45:48.542Z,100.00
2024-05-09T07:53:50.931Z,99.99
2024-05-09T07:56:23.970Z,99.66
2024-05-09T07:58:54.722Z,99.97
2024-05-09T08:01:22.572Z,99.97
2024-05-09T08:03:54.793Z,97.74
2024-05-09T08:06:25.093Z,97.70
2024-05-09T08:08:54.234Z,97.65
2024-05-09T08:11:23.911Z,98.28
2024-05-09T08:13:51.816Z,96.73
2024-05-09T08:16:38.233Z,94.87
2024-05-09T08:19:15.077Z,94.05
2024-05-09T08:21:43.798Z,92.38
2024-05-09T08:24:12.634Z,92.74
2024-05-09T08:26:40.673Z,90.27
2024-05-09T08:29:14.177Z,90.43
2024-05-09T08:31:41.976Z,90.14
2024-05-09T08:34:19.082Z,90.38
2024-05-09T08:36:47.430Z,88.66
2024-05-09T08:39:16.183Z,88.02
2024-05-09T08:41:45.670Z,85.14
2024-05-09T08:44:17.100Z,81.37
2024-05-09T08:46:49.126Z,79.96
2024-05-09T08:49:21.046Z,80.69
2024-05-09T08:51:49.047Z,78.85
2024-05-09T08:54:19.016Z,77.54
2024-05-09T08:56:48.460Z,76.70
2024-05-09T08:59:19.611Z,74.73
2024-05-09T09:01:48.207Z,74.57
2024-05-09T09:04:18.745Z,74.03
2024-05-09T09:06:47.371Z,72.51
2024-05-09T09:09:16.729Z,71.47
2024-05-09T09:11:50.391Z,71.83
2024-05-09T09:14:19.541Z,72.82
2024-05-09T09:16:55.957Z,73.71
2024-05-09T09:19:26.300Z,74.47
2024-05-09T09:22:03.016Z,75.13
2024-05-09T09:24:31.999Z,76.08
2024-05-09T09:27:01.526Z,76.32
2024-05-09T09:29:31.191Z,76.11
2024-05-09T09:32:00.981Z,76.25
2024-05-09T09:34:28.982Z,75.08
2024-05-09T09:36:57.574Z,76.83
2024-05-09T09:39:27.135Z,75.67
2024-05-09T09:41:55.539Z,73.57
2024-05-09T09:44:31.330Z,71.44
2024-05-09T09:46:59.859Z,71.70
2024-05-09T09:49:28.789Z,71.22
2024-05-09T09:52:01.272Z,70.53
2024-05-09T09:54:30.962Z,71.55
2024-05-09T09:57:00.721Z,70.07
2024-05-09T09:59:29.834Z,69.10
2024-05-09T10:01:59.356Z,69.63
2024-05-09T10:04:28.198Z,68.45
2024-05-09T10:07:00.953Z,69.75
2024-05-09T10:09:29.923Z,68.67
2024-05-09T10:12:00.418Z,67.51
2024-05-09T10:14:29.249Z,66.10
2024-05-09T10:16:56.852Z,65.75
2024-05-09T10:19:27.449Z,64.41
2024-05-09T10:21:56.516Z,64.12
2024-05-09T10:24:28.203Z,64.03
2024-05-09T10:27:00.572Z,63.76
2024-05-09T10:29:49.127Z,64.43
2024-05-09T10:32:18.113Z,64.55
2024-05-09T10:34:46.068Z,63.99
2024-05-09T10:37:15.594Z,63.25
2024-05-09T10:39:48.085Z,62.94
2024-05-09T10:42:16.107Z,63.89
2024-05-09T10:44:44.384Z,64.57
2024-05-09T10:47:13.408Z,65.62
2024-05-09T10:49:41.695Z,66.01
2024-05-09T10:52:12.673Z,66.14
2024-05-09T10:54:41.443Z,65.88
2024-05-09T10:57:09.118Z,65.85
2024-05-09T10:59:37.794Z,65.50
2024-05-09T11:02:07.054Z,64.67
2024-05-09T11:04:35.051Z,65.32
2024-05-09T11:07:05.485Z,66.09
2024-05-09T11:09:33.676Z,66.75
2024-05-09T11:12:02.623Z,67.01
2024-05-09T11:14:34.732Z,67.43
2024-05-09T11:17:03.994Z,68.73
2024-05-09T11:19:32.148Z,68.28
2024-05-09T11:22:00.603Z,69.00
2024-05-09T11:24:30.376Z,69.54
2024-05-09T11:26:58.874Z,70.29
2024-05-09T11:29:26.877Z,70.49
2024-05-09T11:31:56.339Z,70.94
2024-05-09T11:34:24.210Z,72.08
2024-05-09T11:36:52.393Z,72.70
2024-05-09T11:39:23.062Z,73.20
2024-05-09T11:41:55.776Z,73.55
2024-05-09T11:44:31.231Z,73.64
2024-05-09T11:47:03.398Z,73.61
2024-05-09T11:49:32.268Z,72.67
2024-05-09T11:52:00.193Z,72.50
2024-05-09T11:54:36.476Z,71.80
2024-05-09T11:57:08.876Z,71.05
2024-05-09T11:59:40.800Z,70.11
2024-05-09T12:02:11.006Z,68.59
2024-05-09T12:04:39.954Z,67.87
2024-05-09T12:07:12.740Z,67.78
2024-05-09T12:09:40.874Z,68.42
2024-05-09T12:12:10.966Z,69.07
2024-05-09T12:14:39.813Z,69.00
2024-05-09T12:17:08.187Z,68.01
2024-05-09T12:19:54.463Z,68.12
2024-05-09T12:22:22.196Z,68.23
2024-05-09T12:24:50.773Z,67.57
2024-05-09T12:27:18.681Z,67.66
2024-05-09T12:29:51.222Z,67.79
2024-05-09T12:32:21.055Z,68.46
2024-05-09T12:34:49.010Z,68.33
2024-05-09T12:37:18.312Z,68.82
2024-05-09T12:39:49.736Z,68.24
2024-05-09T12:42:26.571Z,68.15
2024-05-09T12:44:57.582Z,68.34
2024-05-09T12:47:27.287Z,68.08
2024-05-09T12:49:55.561Z,68.68
2024-05-09T12:52:24.560Z,69.11
2024-05-09T12:54:52.219Z,68.46
2024-05-09T12:57:20.191Z,67.90
2024-05-09T13:00:05.810Z,67.27
2024-05-09T13:02:37.422Z,67.69
2024-05-09T13:05:06.288Z,67.52
2024-05-09T13:07:36.372Z,66.93
2024-05-09T13:10:05.566Z,66.86
2024-05-09T13:12:34.031Z,66.25
2024-05-09T13:15:02.979Z,66.21
2024-05-09T13:17:31.577Z,65.83
2024-05-09T13:20:00.824Z,65.51
2024-05-09T13:22:33.032Z,65.45
2024-05-09T13:25:00.874Z,64.17
2024-05-09T13:27:32.578Z,62.45
2024-05-09T13:30:04.907Z,60.85
2024-05-09T13:32:36.169Z,59.48
2024-05-09T13:35:08.086Z,58.92
2024-05-09T13:37:36.041Z,57.81
2024-05-09T13:40:07.591Z,56.00
2024-05-09T13:42:37.201Z,52.95
2024-05-09T13:45:05.799Z,52.56
2024-05-09T13:47:35.304Z,51.91
2024-05-09T13:50:05.182Z,48.94
2024-05-09T13:52:33.747Z,48.04
2024-05-09T13:55:02.236Z,46.84
2024-05-09T13:57:30.161Z,45.70
2024-05-09T13:59:59.285Z,44.99
2024-05-09T14:02:27.522Z,44.08
2024-05-09T14:04:55.847Z,43.51
2024-05-09T14:07:28.325Z,44.52
2024-05-09T14:09:58.657Z,45.20
2024-05-09T14:12:29.089Z,45.21
2024-05-09T14:14:57.559Z,44.85
2024-05-09T14:17:25.393Z,43.90
2024-05-09T14:19:53.157Z,44.04
2024-05-09T14:22:21.975Z,45.30
2024-05-09T14:24:51.290Z,45.90
2024-05-09T14:27:19.132Z,46.30
2024-05-09T14:29:52.794Z,48.00
2024-05-09T14:32:26.191Z,50.15
2024-05-09T14:34:54.688Z,51.08
2024-05-09T14:37:23.706Z,52.89
2024-05-09T14:39:56.526Z,52.97
2024-05-09T14:42:26.628Z,53.49
2024-05-09T14:44:55.468Z,54.34
2024-05-09T14:47:23.172Z,54.91
2024-05-09T14:49:51.851Z,55.70
2024-05-09T14:52:26.251Z,55.59
2024-05-09T14:55:00.253Z,55.94
2024-05-09T14:57:30.919Z,56.83
2024-05-09T15:00:29.632Z,57.85
2024-05-09T15:03:06.288Z,59.01
2024-05-09T15:05:35.912Z,60.45
2024-05-09T15:08:04.247Z,60.79
2024-05-09T15:10:35.647Z,61.78
2024-05-09T15:13:08.826Z,62.19
2024-05-09T15:15:39.122Z,62.97
2024-05-09T15:18:08.028Z,63.05
2024-05-09T15:20:38.058Z,63.36
2024-05-09T15:23:07.534Z,64.04
2024-05-09T15:25:36.488Z,64.82
2024-05-09T15:28:05.537Z,65.55
2024-05-09T15:30:36.477Z,65.20
2024-05-09T15:33:06.552Z,64.94
2024-05-09T15:35:36.329Z,65.21
2024-05-09T15:38:05.126Z,65.65
2024-05-09T15:40:39.558Z,66.71
2024-05-09T15:43:11.557Z,66.41
2024-05-09T15:45:41.604Z,66.57
2024-05-09T15:48:15.721Z,66.49
2024-05-09T15:50:44.412Z,67.30
2024-05-09T15:53:13.282Z,67.08
2024-05-09T15:55:43.401Z,67.32
2024-05-09T15:58:13.397Z,67.30
2024-05-09T16:00:43.387Z,67.56
2024-05-09T16:03:15.268Z,67.86
2024-05-09T16:05:44.832Z,68.02
2024-05-09T16:08:13.396Z,67.32
2024-05-09T16:10:46.351Z,67.13
2024-05-09T16:13:17.363Z,66.57
2024-05-09T16:15:46.505Z,65.92
2024-05-09T16:18:16.123Z,65.35
2024-05-09T16:20:47.245Z,64.96
2024-05-09T16:23:16.908Z,64.89
2024-05-09T16:25:53.066Z,64.86
2024-05-09T16:28:26.942Z,64.65
2024-05-09T16:30:56.236Z,64.91
2024-05-09T16:33:26.663Z,65.11
2024-05-09T16:35:55.690Z,65.31
2024-05-09T16:38:30.083Z,65.67
2024-05-09T16:41:00.679Z,65.59
2024-05-09T16:43:31.410Z,66.15
2024-05-09T16:46:00.171Z,65.63
2024-05-09T16:48:29.430Z,66.61
2024-05-09T16:50:58.103Z,67.53
2024-05-09T16:53:27.453Z,68.54
2024-05-09T16:55:55.979Z,69.29
2024-05-09T16:58:23.954Z,70.28
2024-05-09T17:00:53.424Z,70.91
2024-05-09T17:03:21.337Z,71.53
2024-05-09T17:05:58.896Z,72.69
2024-05-09T17:08:27.686Z,72.68
2024-05-09T17:10:56.211Z,73.06
2024-05-09T17:13:24.728Z,73.71
2024-05-09T17:15:53.462Z,74.13
2024-05-09T17:18:24.118Z,74.60
2024-05-09T17:20:58.633Z,75.90
2024-05-09T17:23:28.195Z,77.32
2024-05-09T17:25:57.960Z,78.60
2024-05-09T17:28:26.578Z,79.01
2024-05-09T17:31:00.354Z,79.70
2024-05-09T17:33:29.070Z,80.03
2024-05-09T17:35:57.618Z,80.43
2024-05-09T17:38:29.804Z,81.49
2024-05-09T17:40:59.722Z,82.05
2024-05-09T17:43:28.446Z,82.25
2024-05-09T17:45:57.508Z,82.64
2024-05-09T17:48:30.708Z,82.45
2024-05-09T17:50:58.724Z,83.05
2024-05-09T17:53:31.449Z,83.01
2024-05-09T17:56:08.293Z,83.90
2024-05-09T17:58:37.747Z,83.63
2024-05-09T18:01:08.129Z,84.14
2024-05-09T18:03:38.822Z,84.54
2024-05-09T18:06:06.931Z,84.52
2024-05-09T18:08:35.234Z,84.28
2024-05-09T18:11:03.175Z,84.19
2024-05-09T18:13:33.428Z,84.08
2024-05-09T18:16:03.111Z,83.44
2024-05-09T18:18:33.182Z,83.84
2024-05-09T18:21:02.582Z,85.08
2024-05-09T18:23:31.079Z,85.23
2024-05-09T18:25:59.815Z,84.66
2024-05-09T18:28:29.295Z,85.10
2024-05-09T18:30:59.980Z,85.47
2024-05-09T18:33:28.656Z,84.96
2024-05-09T18:35:56.981Z,84.85
2024-05-09T18:38:29.149Z,84.80
2024-05-09T18:40:58.020Z,85.80
2024-05-09T18:43:42.202Z,85.39
2024-05-09T18:46:13.888Z,85.21
2024-05-09T18:48:49.512Z,85.58
2024-05-09T18:51:18.129Z,86.44
2024-05-09T18:53:45.840Z,87.27
2024-05-09T18:56:14.754Z,89.39
2024-05-09T18:58:44.712Z,89.88
2024-05-09T19:01:13.529Z,95.69
2024-05-09T19:03:41.656Z,99.33
2024-05-09T19:06:10.598Z,99.90
2024-05-09T19:08:50.367Z,97.88
2024-05-09T19:11:22.164Z,99.16
2024-05-09T19:13:52.946Z,98.47
2024-05-09T19:16:28.903Z,100.00
2024-05-09T19:19:05.789Z,100.00
2024-05-09T19:21:39.739Z,100.00
2024-05-09T19:24:09.722Z,100.00
2024-05-09T19:26:42.826Z,100.00
2024-05-09T19:29:11.924Z,100.00
2024-05-09T19:31:40.413Z,100.00
2024-05-09T19:34:08.747Z,100.00
2024-05-09T19:36:37.127Z,100.00
2024-05-09T19:39:10.548Z,100.00
2024-05-09T19:41:45.694Z,100.00
2024-05-09T19:44:13.728Z,100.00
2024-05-09T19:46:42.120Z,100.00
2024-05-09T19:49:11.840Z,100.00
2024-05-09T19:51:40.919Z,100.00
2024-05-09T19:54:26.327Z,100.00
2024-05-09T19:57:16.954Z,100.00
2024-05-09T19:59:44.810Z,100.00
2024-05-09T20:02:33.108Z,100.00
2024-05-09T20:05:02.146Z,100.00
2024-05-09T20:07:31.777Z,100.00
2024-05-09T20:10:05.133Z,100.00
2024-05-09T20:12:34.133Z,100.00
2024-05-09T20:15:02.803Z,100.00
2024-05-09T20:17:36.599Z,100.00
2024-05-09T20:20:24.490Z,100.00
2024-05-09T20:23:03.274Z,100.00
2024-05-09T20:25:33.219Z,100.00
2024-05-09T20:28:09.251Z,100.00
2024-05-09T20:30:38.026Z,100.00
2024-05-09T20:33:08.785Z,100.00
2024-05-09T20:35:38.183Z,100.00
2024-05-09T20:38:06.751Z,100.00
2024-05-09T20:40:38.126Z,100.00
2024-05-09T20:43:08.602Z,100.00
2024-05-09T20:45:37.198Z,100.00
2024-05-09T20:48:10.280Z,100.00
2024-05-09T20:50:41.355Z,100.00
2024-05-09T20:53:13.059Z,100.00
2024-05-09T20:55:46.996Z,100.00
2024-05-09T20:58:17.732Z,100.00
2024-05-09T21:00:54.975Z,100.00
2024-05-09T21:03:26.030Z,100.00
2024-05-09T21:05:56.069Z,100.00
2024-05-09T21:08:31.395Z,100.00
2024-05-09T21:11:00.714Z,100.00
2024-05-09T21:13:32.994Z,100.00
2024-05-09T21:16:25.334Z,100.00
2024-05-09T21:18:54.095Z,100.00
2024-05-09T21:21:23.748Z,100.00
2024-05-09T21:23:53.068Z,100.00
2024-05-09T21:26:23.181Z,100.00
2024-05-09T21:28:51.615Z,100.00
2024-05-09T21:31:20.089Z,100.00
2024-05-09T21:33:50.000Z,100.00
2024-05-09T21:36:18.285Z,100.00
2024-05-09T21:39:06.275Z,100.00
2024-05-09T21:41:35.892Z,100.00
2024-05-09T21:44:04.377Z,100.00
2024-05-09T21:46:34.225Z,100.00
2024-05-09T21:49:02.851Z,100.00
2024-05-09T21:51:34.984Z,100.00
2024-05-09T21:54:04.740Z,100.00
2024-05-09T21:56:33.520Z,100.00
2024-05-09T21:59:02.889Z,100.00
2024-05-09T22:01:31.454Z,100.00
2024-05-09T22:04:01.245Z,100.00
2024-05-09T22:06:38.156Z,100.00
2024-05-09T22:09:05.834Z,100.00
2024-05-09T22:11:34.642Z,100.00
2024-05-09T22:14:03.955Z,100.00
2024-05-09T22:16:32.018Z,100.00
2024-05-09T22:19:02.297Z,100.00
2024-05-09T22:21:38.745Z,100.00
2024-05-09T22:24:09.003Z,100.00
2024-05-09T22:26:37.123Z,100.00
2024-05-09T22:29:09.664Z,100.00
2024-05-09T22:31:41.163Z,100.00
2024-05-09T22:34:17.977Z,100.00
2024-05-09T22:36:47.252Z,100.00
2024-05-09T22:39:20.623Z,100.00
2024-05-09T22:41:51.501Z,100.00
2024-05-09T22:44:20.775Z,100.00
2024-05-09T22:46:50.659Z,100.00
2024-05-09T22:49:19.039Z,100.00
2024-05-09T22:51:48.822Z,100.00
2024-05-09T22:54:16.522Z,100.00
2024-05-09T22:56:46.248Z,100.00
2024-05-09T22:59:15.023Z,100.00
2024-05-09T23:01:43.963Z,100.00
2024-05-09T23:04:12.291Z,100.00
2024-05-09T23:06:45.054Z,100.00
2024-05-09T23:09:14.992Z,100.00
2024-05-09T23:11:44.527Z,100.00
2024-05-09T23:14:14.203Z,100.00
2024-05-09T23:16:50.407Z,100.00
2024-05-09T23:19:23.207Z,100.00
2024-05-09T23:22:11.624Z,99.97
2024-05-09T23:24:45.949Z,100.00
2024-05-09T23:27:16.656Z,100.00
2024-05-09T23:30:06.128Z,100.00
2024-05-09T23:32:37.705Z,100.00
2024-05-09T23:35:06.671Z,100.00
2024-05-09T23:37:34.384Z,99.96
2024-05-09T23:40:09.363Z,100.00
2024-05-09T23:42:38.520Z,100.00
2024-05-09T23:45:26.816Z,100.00
2024-05-09T23:47:56.639Z,100.00
2024-05-09T23:50:33.742Z,100.00
2024-05-09T23:53:04.811Z,100.00
2024-05-09T23:55:33.977Z,100.00
2024-05-09T23:58:02.060Z,100.00
